Time;durP1;ratioP1;P1;durP2;ratioP2;P2;SDS_P1;SDS_P2;PMS_P1;PMS_P2;Temp;Humidity;BMP_temperature;BMP_pressure;BME280_temperature;BME280_humidity;BME280_pressure;Samples;Min_cycle;Max_cycle;Signal;HPM_P1;HPM_P2
2021/08/15 18:30:12;;;;;;;15.84;8.47;;;;;;;31.35;30.31;99220.12;308246;110;2863001;-71
2021/08/15 18:31:33;;;;;;;18.48;10.38;;;;;;;31.42;30.45;99217.56;350961;101;2322064;-72
2021/08/15 18:32:42;;;;;;;16.96;8.22;;;;;;;31.29;30.48;99220.38;381717;105;1961977;-71
2021/08/15 18:33:49;;;;;;;16.56;8.75;;;;;;;31.25;30.50;99216.69;338510;105;2800073;-71
2021/08/15 18:35:03;;;;;;;16.33;8.42;;;;;;;31.35;30.65;99222.91;395525;104;1985931;-72
2021/08/15 18:36:15;;;;;;;14.29;9.21;;;;;;;31.35;30.68;99222.91;403027;100;1986975;-72
2021/08/15 18:37:40;;;;;;;14.27;9.46;;;;;;;31.22;30.67;99228.53;352221;113;1961985;-71
2021/08/15 18:38:52;;;;;;;12.54;8.16;;;;;;;31.32;30.92;99227.22;392791;104;1989160;-73
2021/08/15 18:39:57;;;;;;;14.67;8.55;;;;;;;31.17;30.76;99230.77;375139;105;1961955;-72
2021/08/15 18:41:03;;;;;;;15.54;9.13;;;;;;;31.16;30.77;99237.52;377850;105;1962024;-71
2021/08/15 18:42:15;;;;;;;13.81;8.56;;;;;;;31.23;30.95;99232.96;397346;103;1986947;-72
2021/08/15 18:43:20;;;;;;;11.95;7.72;;;;;;;31.09;30.90;99235.32;383406;104;1962028;-72
2021/08/15 18:44:33;;;;;;;12.36;8.46;;;;;;;31.16;31.03;99232.75;386096;106;1987001;-70
2021/08/15 18:45:38;;;;;;;12.79;7.18;;;;;;;31.01;31.12;99230.70;368587;109;1961909;-72
2021/08/15 18:47:04;;;;;;;11.47;7.81;;;;;;;30.98;31.15;99228.63;368000;109;1962068;-72
2021/08/15 18:48:16;;;;;;;13.78;7.76;;;;;;;31.10;31.35;99237.77;394437;103;1986909;-71
2021/08/15 18:49:22;;;;;;;15.56;9.80;;;;;;;30.98;31.28;99232.22;380121;105;1962069;-71
2021/08/15 18:50:34;;;;;;;16.04;10.03;;;;;;;31.07;31.56;99238.48;389376;106;1986047;-71
2021/08/15 18:51:39;;;;;;;19.17;10.82;;;;;;;30.95;31.42;99237.70;372356;107;1962054;-72
2021/08/15 18:53:03;;;;;;;14.84;10.16;;;;;;;30.93;31.44;99238.05;339479;107;2856933;-72
2021/08/15 18:54:16;;;;;;;16.79;9.89;;;;;;;31.00;31.60;99237.45;387833;106;1972884;-72
2021/08/15 18:55:21;;;;;;;18.08;9.83;;;;;;;30.84;31.60;99234.59;367414;108;1962001;-72
2021/08/15 18:56:35;;;;;;;17.28;10.50;;;;;;;30.94;31.73;99233.30;395083;104;1995975;-70
2021/08/15 18:57:49;;;;;;;15.74;10.03;;;;;;;30.92;31.87;99230.85;388316;105;1987017;-70
2021/08/15 18:59:12;;;;;;;12.92;8.12;;;;;;;30.77;31.80;99237.93;358582;111;1961899;-72
2021/08/15 19:00:24;;;;;;;14.22;8.99;;;;;;;30.91;31.72;99231.19;397742;104;1986022;-71
2021/08/15 19:01:30;;;;;;;15.22;8.84;;;;;;;30.79;31.77;99232.82;380877;105;1962075;-71
2021/08/15 19:02:53;;;;;;;15.72;9.04;;;;;;;30.77;31.75;99234.34;365876;105;1962030;-70
2021/08/15 19:04:05;;;;;;;14.89;9.22;;;;;;;30.81;31.90;99233.32;407446;101;2071940;-70
2021/08/15 19:05:11;;;;;;;15.34;8.56;;;;;;;30.69;31.94;99236.09;383926;103;1970943;-71
2021/08/15 19:06:17;;;;;;;13.00;8.94;;;;;;;30.67;32.05;99241.20;378337;107;1961906;-71
2021/08/15 19:07:30;;;;;;;17.06;8.94;;;;;;;30.77;31.99;99243.51;372239;109;1986070;-71
2021/08/15 19:08:36;;;;;;;18.19;8.94;;;;;;;30.71;31.92;99236.56;312920;114;2885779;-71
2021/08/15 19:09:48;;;;;;;13.94;8.80;;;;;;;30.75;31.87;99239.45;325691;111;2098094;-71
2021/08/15 19:10:56;;;;;;;16.32;8.71;;;;;;;30.80;32.04;99237.25;383654;106;1986990;-71
2021/08/15 19:12:02;;;;;;;14.94;9.27;;;;;;;30.67;31.98;99236.45;367086;109;1962000;-71
2021/08/15 19:13:14;;;;;;;15.27;9.58;;;;;;;30.74;32.13;99238.64;389689;104;2072007;-72
2021/08/15 19:14:19;;;;;;;17.16;9.71;;;;;;;30.61;32.20;99237.03;355863;107;1962004;-72
2021/08/15 19:15:31;;;;;;;16.49;9.64;;;;;;;30.67;32.30;99241.20;377457;108;1988907;-71
2021/08/15 19:16:39;;;;;;;16.81;9.19;;;;;;;30.54;32.30;99240.42;363530;110;1961982;-72
2021/08/15 19:18:03;;;;;;;15.88;9.93;;;;;;;30.56;32.27;99237.27;362718;109;1963975;-71
2021/08/15 19:19:15;;;;;;;15.29;9.31;;;;;;;30.62;32.35;99242.27;390335;104;2860045;-71
2021/08/15 19:20:32;;;;;;;14.61;9.89;;;;;;;30.47;32.40;99242.98;340359;105;2713962;-72
2021/08/15 19:21:35;;;;;;;13.88;9.76;;;;;;;30.47;32.50;99240.19;379868;105;1965038;-71
2021/08/15 19:22:42;;;;;;;14.66;9.62;;;;;;;30.48;32.50;99241.80;379214;105;1962060;-72
2021/08/15 19:23:47;;;;;;;16.00;10.00;;;;;;;30.45;32.56;99239.72;377216;105;1965051;-72
2021/08/15 19:25:00;;;;;;;15.12;8.82;;;;;;;30.51;32.66;99243.91;393652;104;1964953;-72
2021/08/15 19:26:07;;;;;;;16.85;9.24;;;;;;;30.40;32.60;99242.73;377409;107;1961883;-72
2021/08/15 19:27:13;;;;;;;16.80;8.94;;;;;;;30.38;32.72;99242.27;377645;107;1961991;-71
2021/08/15 19:28:18;;;;;;;14.79;8.64;;;;;;;30.41;32.63;99239.62;373961;107;1961873;-71
2021/08/15 19:29:30;;;;;;;15.43;8.12;;;;;;;30.52;32.63;99245.53;376935;105;2899957;-72
2021/08/15 19:30:38;;;;;;;15.26;8.81;;;;;;;30.39;32.67;99241.13;328225;107;2719965;-73
2021/08/15 19:31:43;;;;;;;16.23;8.57;;;;;;;30.37;32.70;99240.66;367070;108;1963018;-73
2021/08/15 19:32:57;;;;;;;14.36;8.12;;;;;;;30.44;32.75;99247.27;390691;104;2072027;-72
2021/08/15 19:34:02;;;;;;;17.79;10.13;;;;;;;30.31;32.81;99240.08;358471;112;1962997;-71
2021/08/15 19:35:14;;;;;;;15.76;9.21;;;;;;;30.41;32.93;99238.81;380916;106;2070926;-71
2021/08/15 19:36:21;;;;;;;13.43;8.16;;;;;;;30.25;32.94;99241.48;359597;107;1969084;-71
2021/08/15 19:37:36;;;;;;;11.94;7.67;;;;;;;30.34;32.96;99233.00;346118;106;2869007;-71
2021/08/15 19:38:51;;;;;;;14.68;8.90;;;;;;;30.34;33.01;99244.95;383199;106;1987027;-72
2021/08/15 19:40:15;;;;;;;15.32;8.78;;;;;;;30.22;33.00;99240.17;364433;109;1964017;-72
2021/08/15 19:41:28;;;;;;;16.11;9.26;;;;;;;30.32;32.98;99241.69;383718;105;1972913;-72
2021/08/15 19:42:33;;;;;;;16.61;8.81;;;;;;;30.19;33.02;99240.88;366023;109;1960914;-70
2021/08/15 19:43:57;;;;;;;15.52;7.66;;;;;;;30.18;33.06;99239.23;360468;111;1962873;-71
2021/08/15 19:45:11;;;;;;;14.47;8.81;;;;;;;30.26;33.13;99239.50;389429;106;1985974;-70
2021/08/15 19:46:19;;;;;;;15.38;8.71;;;;;;;30.14;33.16;99231.91;315943;109;2264999;-70
2021/08/15 19:47:26;;;;;;;13.77;7.82;;;;;;;30.13;33.19;99236.67;354660;111;1961903;-71
2021/08/15 19:48:39;;;;;;;16.49;8.96;;;;;;;30.21;33.20;99234.94;398426;104;1984875;-71
2021/08/15 19:49:44;;;;;;;13.46;8.04;;;;;;;30.08;33.27;99236.09;378412;105;1960782;-72
2021/08/15 19:50:59;;;;;;;13.73;7.21;;;;;;;30.19;33.37;99237.25;397796;103;1987858;-72
2021/08/15 19:52:05;;;;;;;16.13;8.68;;;;;;;30.06;33.30;99238.40;380451;105;1961958;-71
2021/08/15 19:53:28;;;;;;;14.91;7.54;;;;;;;30.02;33.41;99239.09;375798;105;1962927;-71
2021/08/15 19:54:41;;;;;;;13.33;8.50;;;;;;;30.14;33.43;99243.05;393672;104;2070982;-69
2021/08/15 19:55:47;;;;;;;14.47;8.01;;;;;;;30.01;33.43;99240.27;375784;107;1968958;-71
2021/08/15 19:56:53;;;;;;;15.08;8.01;;;;;;;30.00;33.50;99243.39;367295;109;1961951;-71
2021/08/15 19:58:05;;;;;;;15.44;9.24;;;;;;;30.11;33.60;99232.60;396851;104;2074101;-71
2021/08/15 19:59:11;;;;;;;14.67;8.33;;;;;;;29.96;33.59;99237.70;379746;105;1962050;-71
2021/08/15 20:00:24;;;;;;;14.19;7.97;;;;;;;30.07;33.62;99231.69;392381;104;1962018;-71
2021/08/15 20:01:29;;;;;;;16.44;8.29;;;;;;;29.95;33.57;99240.83;374348;106;1967952;-70
2021/08/15 20:02:36;;;;;;;15.22;8.62;;;;;;;29.94;33.58;99234.45;373362;107;1962013;-72
2021/08/15 20:03:48;;;;;;;16.79;9.24;;;;;;;30.05;33.59;99242.36;401184;101;1985957;-73
2021/08/15 20:04:54;;;;;;;15.29;9.06;;;;;;;29.92;33.64;99238.73;386920;104;1962016;-73
2021/08/15 20:06:06;;;;;;;13.65;8.38;;;;;;;30.07;33.63;99251.99;395384;104;1986044;-71
2021/08/15 20:07:11;;;;;;;12.30;8.67;;;;;;;29.94;33.61;99242.00;375903;107;1961964;-72
2021/08/15 20:08:16;;;;;;;12.98;7.92;;;;;;;29.90;33.69;99241.85;372776;107;1961960;-70
2021/08/15 20:09:29;;;;;;;16.47;9.52;;;;;;;29.94;33.74;99228.88;372667;106;3028000;-71
2021/08/15 20:10:34;;;;;;;13.39;8.25;;;;;;;29.88;33.83;99240.60;369382;108;1963977;-71
2021/08/15 20:11:46;;;;;;;14.31;8.45;;;;;;;29.97;33.84;99230.16;384594;106;1987002;-70
2021/08/15 20:12:51;;;;;;;13.74;8.56;;;;;;;29.84;33.84;99232.11;340391;107;2006995;-71
2021/08/15 20:14:16;;;;;;;15.08;8.58;;;;;;;29.82;33.87;99228.84;361694;111;1961884;-70
2021/08/15 20:15:22;;;;;;;14.52;8.72;;;;;;;29.79;33.89;99229.55;361183;110;1962069;-71
2021/08/15 20:16:37;;;;;;;13.43;8.14;;;;;;;29.92;33.87;99228.41;393126;103;1966113;-71
2021/08/15 20:17:49;;;;;;;12.78;7.85;;;;;;;29.90;33.90;99227.12;373073;106;1986075;-71
2021/08/15 20:18:56;;;;;;;15.26;8.87;;;;;;;29.81;33.89;99232.80;371685;106;1961833;-71
2021/08/15 20:20:10;;;;;;;13.67;8.13;;;;;;;29.90;33.99;99235.48;382816;106;2071951;-72
2021/08/15 20:21:15;;;;;;;13.61;8.03;;;;;;;29.79;33.94;99235.11;343569;108;1973988;-71
2021/08/15 20:22:39;;;;;;;15.68;8.88;;;;;;;29.75;34.02;99239.76;370561;109;1962040;-71
2021/08/15 20:23:45;;;;;;;12.60;7.53;;;;;;;29.73;34.06;99230.94;366414;108;1961921;-72
2021/08/15 20:24:57;;;;;;;14.59;7.62;;;;;;;29.87;34.06;99236.17;378732;106;1962040;-71
2021/08/15 20:26:04;;;;;;;14.07;8.86;;;;;;;29.74;34.04;99232.55;337752;109;2053829;-72
2021/08/15 20:27:10;;;;;;;19.92;8.67;;;;;;;29.74;34.08;99229.77;368071;109;1962982;-71
2021/08/15 20:28:22;;;;;;;15.81;8.37;;;;;;;29.80;34.13;99226.42;393519;104;1985913;-71
2021/08/15 20:29:30;;;;;;;14.04;8.40;;;;;;;29.71;34.07;99222.91;369072;107;1962008;-72
2021/08/15 20:30:42;;;;;;;14.57;7.77;;;;;;;29.81;34.13;99221.66;386511;106;1985897;-71
2021/08/15 20:31:54;;;;;;;14.91;7.41;;;;;;;29.81;34.09;99221.66;372025;106;2852903;-72
2021/08/15 20:33:00;;;;;;;14.61;7.56;;;;;;;29.67;34.13;99227.56;371789;107;1962009;-72
2021/08/15 20:34:05;;;;;;;14.61;7.59;;;;;;;29.64;34.21;99219.03;360910;109;2853975;-73
2021/08/15 20:35:17;;;;;;;13.68;7.36;;;;;;;29.74;34.22;99222.22;377831;108;1986077;-71
2021/08/15 20:36:23;;;;;;;12.59;7.24;;;;;;;29.64;34.19;99214.34;360676;110;1964001;-71
2021/08/15 20:37:35;;;;;;;13.63;7.69;;;;;;;29.78;34.26;99225.95;395467;104;1987015;-69
2021/08/15 20:38:40;;;;;;;13.68;7.59;;;;;;;29.67;34.14;99221.19;369140;107;1964104;-71
2021/08/15 20:40:06;;;;;;;13.47;7.87;;;;;;;29.66;34.16;99222.32;305912;107;2370898;-71
2021/08/15 20:41:18;;;;;;;15.47;7.30;;;;;;;29.75;34.26;99225.84;393845;103;1986978;-70
2021/08/15 20:42:24;;;;;;;14.74;7.94;;;;;;;29.59;34.25;99218.11;375356;105;1961910;-72
2021/08/15 20:43:29;;;;;;;17.10;8.32;;;;;;;29.55;34.35;99222.73;376029;106;1961991;-71
2021/08/15 20:44:41;;;;;;;16.55;8.73;;;;;;;29.65;34.41;99224.30;393338;104;2071907;-71
2021/08/15 20:45:46;;;;;;;17.29;8.11;;;;;;;29.53;34.51;99218.66;360317;105;1962027;-71
2021/08/15 20:46:59;;;;;;;13.89;8.11;;;;;;;29.63;34.50;99220.20;394637;104;1963836;-70
2021/08/15 20:48:12;;;;;;;13.20;8.28;;;;;;;29.61;34.56;99220.53;388857;103;1987019;-72
2021/08/15 20:49:17;;;;;;;16.93;8.62;;;;;;;29.49;34.59;99220.52;362244;107;2835933;-71
2021/08/15 20:50:29;;;;;;;13.91;7.44;;;;;;;29.63;34.46;99218.23;391358;104;1985929;-71
2021/08/15 20:51:38;;;;;;;14.30;7.92;;;;;;;29.51;34.47;99213.45;373946;107;1964052;-72
2021/08/15 20:53:00;;;;;;;14.18;7.72;;;;;;;29.45;34.59;99214.00;357696;107;1962040;-72
2021/08/15 20:54:12;;;;;;;13.53;8.38;;;;;;;29.61;34.61;99225.30;400514;101;2071958;-70
2021/08/15 20:55:25;;;;;;;15.73;9.29;;;;;;;29.63;34.58;99218.23;393048;104;2081035;-71
2021/08/15 20:56:50;;;;;;;18.32;9.08;;;;;;;29.51;34.59;99218.21;384740;105;1970059;-72
2021/08/15 20:58:04;;;;;;;15.25;8.33;;;;;;;29.57;34.72;99216.83;393095;103;2070710;-71
2021/08/15 20:59:13;;;;;;;15.55;7.96;;;;;;;29.40;34.68;99212.27;339867;104;2657704;-71
2021/08/15 21:00:39;;;;;;;14.04;7.73;;;;;;;29.41;34.64;99216.66;348709;104;2018779;-71
2021/08/15 21:01:53;;;;;;;13.97;8.21;;;;;;;29.52;34.64;99209.50;398574;102;1960775;-71
2021/08/15 21:02:59;;;;;;;16.59;8.37;;;;;;;29.39;34.71;99216.19;330627;105;2830739;-72
2021/08/15 21:04:11;;;;;;;14.06;8.16;;;;;;;29.50;34.81;99211.00;393465;101;1984697;-71
2021/08/15 21:05:21;;;;;;;14.66;7.50;;;;;;;29.37;34.71;99215.70;374061;104;1960921;-71
2021/08/15 21:06:42;;;;;;;13.47;7.46;;;;;;;29.36;34.75;99214.09;368854;106;1960719;-70
2021/08/15 21:07:53;;;;;;;13.93;7.65;;;;;;;29.38;34.69;99217.36;368569;108;1960775;-71
2021/08/15 21:09:06;;;;;;;16.44;8.51;;;;;;;29.46;34.80;99207.30;387402;106;1984705;-71
2021/08/15 21:10:12;;;;;;;13.97;7.38;;;;;;;29.34;34.76;99216.40;333029;108;2681875;-71
2021/08/15 21:11:20;;;;;;;16.92;9.14;;;;;;;29.32;34.81;99215.92;325969;108;2165963;-70
2021/08/15 21:12:25;;;;;;;15.91;9.15;;;;;;;29.34;34.83;99213.61;365458;109;1960879;-71
2021/08/15 21:13:30;;;;;;;12.60;7.61;;;;;;;29.35;34.76;99221.63;366160;109;1960906;-72
2021/08/15 21:14:45;;;;;;;16.48;8.52;;;;;;;29.42;35.00;99223.84;382997;106;2071712;-71
2021/08/15 21:15:50;;;;;;;16.35;7.97;;;;;;;29.30;34.97;99215.47;369420;104;1967917;-71
2021/08/15 21:17:03;;;;;;;14.29;7.56;;;;;;;29.37;34.98;99221.27;387677;105;1984773;-71
2021/08/15 21:18:08;;;;;;;13.34;7.60;;;;;;;29.26;35.00;99212.55;367564;109;1960937;-71
2021/08/15 21:19:31;;;;;;;12.65;7.97;;;;;;;29.26;35.06;99218.11;315537;109;2203835;-71
2021/08/15 21:20:45;;;;;;;15.78;9.21;;;;;;;29.41;35.05;99222.23;391899;103;2069769;-70
2021/08/15 21:21:52;;;;;;;13.46;7.94;;;;;;;29.27;35.02;99210.59;377146;105;1967852;-71
2021/08/15 21:23:05;;;;;;;14.91;8.09;;;;;;;29.34;35.15;99221.97;396290;103;1984852;-71
2021/08/15 21:24:10;;;;;;;15.20;8.59;;;;;;;29.22;35.15;99219.16;373158;106;1960816;-70
2021/08/15 21:25:36;;;;;;;17.86;9.21;;;;;;;29.19;35.17;99220.64;312129;107;2505838;-71
2021/08/15 21:27:08;;;;;;;18.14;8.91;;;;;;;29.28;35.37;99218.58;397816;103;1984628;-70
2021/08/15 21:28:14;;;;;;;12.76;7.98;;;;;;;29.14;35.20;99216.09;379425;105;1960830;-71
2021/08/15 21:29:26;;;;;;;16.89;9.14;;;;;;;29.28;35.20;99214.99;387189;103;2070783;-70
2021/08/15 21:30:31;;;;;;;14.51;8.26;;;;;;;29.19;35.19;99206.73;353268;106;1960758;-70
2021/08/15 21:31:36;;;;;;;16.44;8.89;;;;;;;29.17;35.22;99211.83;345288;105;2045050;-71
2021/08/15 21:32:42;;;;;;;13.56;7.95;;;;;;;29.10;35.32;99215.14;324722;106;2241057;-70
2021/08/15 21:33:47;;;;;;;12.74;7.78;;;;;;;29.07;35.34;99213.05;352334;106;1961924;-71
2021/08/15 21:34:59;;;;;;;14.92;8.02;;;;;;;29.21;35.46;99209.16;387671;106;1986890;-71
2021/08/15 21:36:06;;;;;;;14.63;8.64;;;;;;;29.09;35.38;99204.38;368793;107;1961892;-72
2021/08/15 21:37:12;;;;;;;18.83;8.53;;;;;;;29.08;35.40;99203.56;366512;107;1961995;-71
2021/08/15 21:38:24;;;;;;;17.89;8.54;;;;;;;29.18;35.42;99198.72;380831;103;1985955;-70
2021/08/15 21:39:30;;;;;;;13.49;7.28;;;;;;;29.03;35.45;99206.52;332813;106;2199765;-71
2021/08/15 21:40:42;;;;;;;13.96;8.51;;;;;;;29.14;35.48;99204.97;389675;104;2078014;-71
2021/08/15 21:41:47;;;;;;;14.71;7.66;;;;;;;29.02;35.45;99210.44;376517;106;1962010;-71
2021/08/15 21:42:52;;;;;;;13.66;7.95;;;;;;;29.02;35.50;99220.75;373236;106;1962838;-72
2021/08/15 21:44:05;;;;;;;17.37;8.41;;;;;;;29.11;35.48;99211.22;392324;103;1987896;-71
2021/08/15 21:45:12;;;;;;;16.08;8.87;;;;;;;29.00;35.49;99212.73;373071;107;1961072;-70
2021/08/15 21:46:24;;;;;;;15.01;9.01;;;;;;;29.12;35.49;99217.59;394164;104;1985941;-70
2021/08/15 21:47:30;;;;;;;16.17;8.23;;;;;;;28.98;35.56;99214.23;379337;105;1960728;-71
2021/08/15 21:48:54;;;;;;;13.70;7.82;;;;;;;28.94;35.60;99212.13;324685;107;2849971;-71
2021/08/15 21:49:59;;;;;;;13.34;7.79;;;;;;;28.96;35.53;99205.44;309949;107;2339863;-71
2021/08/15 21:51:12;;;;;;;12.44;8.49;;;;;;;29.06;35.58;99208.65;392960;104;2070840;-70
2021/08/15 21:52:17;;;;;;;12.73;7.36;;;;;;;28.94;35.66;99214.11;375547;107;1960842;-70
2021/08/15 21:53:22;;;;;;;16.82;8.89;;;;;;;28.91;35.63;99220.35;367759;109;1960770;-71
2021/08/15 21:54:35;;;;;;;15.12;7.81;;;;;;;29.01;35.64;99219.95;394928;104;1984853;-70
2021/08/15 21:55:41;;;;;;;17.57;7.82;;;;;;;28.88;35.73;99213.50;378316;105;1960832;-70
2021/08/15 21:56:47;;;;;;;13.19;7.87;;;;;;;28.86;35.66;99210.23;334665;106;2760958;-71
2021/08/15 21:57:53;;;;;;;14.52;7.74;;;;;;;28.87;35.73;99220.23;341393;108;2029863;-70
2021/08/15 21:59:01;;;;;;;14.32;8.13;;;;;;;28.86;35.70;99214.99;364676;109;1962021;-71
2021/08/15 22:00:14;;;;;;;14.56;8.41;;;;;;;28.96;35.71;99209.03;347011;104;2535894;-71
2021/08/15 22:01:21;;;;;;;16.37;8.02;;;;;;;28.84;35.78;99211.73;377528;106;1961944;-72
2021/08/15 22:02:28;;;;;;;13.26;8.13;;;;;;;28.81;35.72;99213.22;369882;103;1960858;-70
2021/08/15 22:03:34;;;;;;;14.51;8.18;;;;;;;28.81;35.72;99213.22;359834;108;1962026;-71
2021/08/15 22:04:46;;;;;;;14.72;8.72;;;;;;;28.88;35.81;99210.72;394030;104;1987043;-71
2021/08/15 22:05:51;;;;;;;12.74;8.09;;;;;;;28.81;35.83;99209.63;358830;105;1961994;-71
2021/08/15 22:06:59;;;;;;;17.48;8.31;;;;;;;28.78;35.86;99210.31;380040;105;1963028;-71
2021/08/15 22:08:13;;;;;;;12.46;8.39;;;;;;;28.86;35.90;99203.88;349091;104;2881037;-70
2021/08/15 22:09:18;;;;;;;13.59;9.08;;;;;;;28.71;35.98;99205.28;369606;107;1961786;-69
2021/08/15 22:10:30;;;;;;;16.30;8.14;;;;;;;28.83;36.05;99204.55;396019;104;1985936;-70
2021/08/15 22:11:36;;;;;;;14.69;8.52;;;;;;;28.71;35.99;99203.34;374024;106;1961945;-72
2021/08/15 22:12:59;;;;;;;13.83;8.67;;;;;;;28.70;36.04;99204.47;373645;106;1962061;-71
2021/08/15 22:14:11;;;;;;;14.37;8.12;;;;;;;28.80;36.08;99205.23;395366;104;1985935;-72
2021/08/15 22:15:17;;;;;;;16.78;9.10;;;;;;;28.65;36.14;99196.33;373503;107;1961971;-71
2021/08/15 22:16:30;;;;;;;14.13;8.01;;;;;;;28.77;36.16;99203.95;396140;104;1986890;-70
2021/08/15 22:17:42;;;;;;;19.52;9.01;;;;;;;28.74;36.21;99201.85;384744;106;1966001;-70
2021/08/15 22:19:06;;;;;;;15.19;8.47;;;;;;;28.63;36.21;99197.83;322096;111;2777987;-70
2021/08/15 22:20:18;;;;;;;16.24;8.19;;;;;;;28.74;36.40;99198.23;388165;106;1962016;-71
2021/08/15 22:21:24;;;;;;;12.52;8.49;;;;;;;28.58;36.33;99198.02;373118;107;1968999;-71
2021/08/15 22:22:47;;;;;;;13.73;8.42;;;;;;;28.54;36.59;99197.08;363694;107;2835054;-71
2021/08/15 22:23:53;;;;;;;17.12;8.86;;;;;;;28.51;36.58;99195.79;327854;109;2752004;-70
2021/08/15 22:25:08;;;;;;;14.52;8.46;;;;;;;28.58;36.65;99196.08;393823;103;1962010;-70
2021/08/15 22:26:17;;;;;;;16.05;8.71;;;;;;;28.46;36.64;99199.57;316155;107;2309925;-71
2021/08/15 22:27:24;;;;;;;14.83;8.54;;;;;;;28.44;36.69;99198.28;374574;106;1961871;-71
2021/08/15 22:28:29;;;;;;;15.12;8.22;;;;;;;28.43;36.77;99203.03;368013;107;2946832;-70
2021/08/15 22:29:42;;;;;;;16.44;8.39;;;;;;;28.54;36.77;99188.75;393863;104;1986017;-70
2021/08/15 22:30:49;;;;;;;16.31;9.85;;;;;;;28.46;36.73;99199.57;374318;106;1965064;-70
2021/08/15 22:31:54;;;;;;;15.27;8.82;;;;;;;28.46;36.69;99195.98;373503;107;1961962;-71
2021/08/15 22:33:07;;;;;;;16.39;8.01;;;;;;;28.56;36.81;99195.59;354180;104;2544022;-70
2021/08/15 22:34:15;;;;;;;16.32;8.54;;;;;;;28.43;36.77;99203.03;317057;108;2239049;-70
2021/08/15 22:35:28;;;;;;;15.23;8.50;;;;;;;28.51;36.92;99204.12;349269;104;2816986;-70
2021/08/15 22:36:34;;;;;;;14.88;8.50;;;;;;;28.41;36.89;99196.95;365457;106;1961941;-71
2021/08/15 22:37:58;;;;;;;12.63;7.86;;;;;;;28.43;36.83;99200.25;374688;106;1962019;-71
2021/08/15 22:39:12;;;;;;;12.38;8.27;;;;;;;28.57;36.86;99197.21;386570;106;1973976;-71
2021/08/15 22:40:17;;;;;;;15.33;8.34;;;;;;;28.41;36.91;99202.52;365255;109;1963993;-72
2021/08/15 22:41:30;;;;;;;15.25;8.96;;;;;;;28.52;37.01;99194.63;338128;106;2779967;-71
2021/08/15 22:42:36;;;;;;;14.83;8.37;;;;;;;28.36;37.11;99197.15;305589;107;2315191;-71
2021/08/15 22:43:59;;;;;;;17.17;8.61;;;;;;;28.33;37.15;99197.02;359679;111;1962026;-70
2021/08/15 22:45:12;;;;;;;14.86;9.17;;;;;;;28.42;37.46;99198.60;368568;104;2081886;-70
2021/08/15 22:46:17;;;;;;;13.40;8.16;;;;;;;28.27;37.44;99197.20;354109;107;1965064;-71
2021/08/15 22:47:30;;;;;;;17.06;9.27;;;;;;;28.37;37.55;99196.02;391524;104;1986060;-72
2021/08/15 22:48:35;;;;;;;13.94;8.05;;;;;;;28.28;37.50;99204.38;370991;107;1962016;-71
2021/08/15 22:49:47;;;;;;;14.60;9.17;;;;;;;28.34;37.66;99198.63;390670;104;2072026;-72
2021/08/15 22:50:54;;;;;;;16.77;8.47;;;;;;;28.20;37.71;99198.88;334183;107;2733449;-71
2021/08/15 22:52:00;;;;;;;17.69;9.75;;;;;;;28.15;37.88;99201.84;370884;107;1962002;-71
2021/08/15 22:53:06;;;;;;;15.03;9.02;;;;;;;28.15;37.76;99197.09;375222;107;1963945;-71
2021/08/15 22:54:19;;;;;;;16.45;9.46;;;;;;;28.24;37.82;99192.33;389008;104;2071944;-70
2021/08/15 22:55:25;;;;;;;15.58;8.99;;;;;;;28.14;37.92;99189.12;376111;107;1961957;-70
2021/08/15 22:56:30;;;;;;;16.81;8.49;;;;;;;28.10;38.00;99191.73;365798;107;2889889;-71
2021/08/15 22:57:36;;;;;;;15.99;9.20;;;;;;;28.08;38.03;99191.27;367016;107;2917940;-69
2021/08/15 22:58:48;;;;;;;14.21;8.72;;;;;;;28.20;38.06;99190.55;387069;104;1987967;-70
2021/08/15 22:59:53;;;;;;;13.39;8.29;;;;;;;28.09;38.09;99194.86;367640;107;1963897;-69
2021/08/15 23:01:05;;;;;;;15.64;8.78;;;;;;;28.17;38.29;99200.36;392712;104;1985988;-69
2021/08/15 23:02:13;;;;;;;13.53;8.88;;;;;;;28.04;38.23;99198.63;377263;107;1961912;-70
2021/08/15 23:03:19;;;;;;;13.31;9.00;;;;;;;28.03;38.20;99197.02;311885;107;2493899;-68
2021/08/15 23:04:31;;;;;;;14.97;9.04;;;;;;;28.13;38.27;99193.02;392458;104;2074010;-69
2021/08/15 23:05:39;;;;;;;16.72;9.18;;;;;;;28.02;38.23;99203.70;374305;105;1961979;-68
2021/08/15 23:06:45;;;;;;;14.87;8.91;;;;;;;28.02;38.27;99198.14;336162;107;2046118;-70
2021/08/15 23:07:57;;;;;;;13.89;9.21;;;;;;;28.16;38.21;99197.94;391768;104;2070997;-69
2021/08/15 23:09:03;;;;;;;16.14;8.32;;;;;;;28.05;38.20;99195.53;376694;106;1970054;-69
2021/08/15 23:10:17;;;;;;;14.09;7.81;;;;;;;28.19;38.16;99203.63;341011;106;2864003;-70
2021/08/15 23:11:22;;;;;;;14.59;9.15;;;;;;;28.10;38.08;99208.39;330035;107;2111955;-70
2021/08/15 23:12:34;;;;;;;18.53;9.52;;;;;;;28.21;38.18;99200.50;396330;104;1987020;-70
2021/08/15 23:13:39;;;;;;;16.26;8.50;;;;;;;28.08;38.23;99196.83;378261;105;1962057;-70
2021/08/15 23:15:06;;;;;;;14.50;9.34;;;;;;;28.05;38.24;99203.02;320661;106;2250985;-69
2021/08/15 23:16:11;;;;;;;14.74;8.65;;;;;;;28.04;38.28;99196.66;376702;106;1961999;-70
2021/08/15 23:17:24;;;;;;;13.33;8.45;;;;;;;28.14;38.36;99195.48;364521;104;2861893;-70
2021/08/15 23:18:30;;;;;;;14.36;8.21;;;;;;;28.01;38.42;99194.56;330721;105;2201912;-70
2021/08/15 23:20:02;;;;;;;13.29;8.38;;;;;;;28.11;38.43;99190.60;396914;104;2028924;-70
2021/08/15 23:21:59;;;;;;;14.87;9.04;;;;;;;27.98;38.43;99191.64;321283;105;2268070;-70
2021/08/15 23:23:55;;;;;;;15.87;8.51;;;;;;;27.96;38.48;99191.16;376958;105;1960937;-70
2021/08/15 23:25:28;;;;;;;15.36;8.78;;;;;;;28.04;38.63;99193.08;382914;104;2035790;-70
2021/08/15 23:26:35;;;;;;;14.92;9.18;;;;;;;27.87;38.59;99182.06;380072;106;1960893;-70
2021/08/15 23:27:41;;;;;;;15.21;9.32;;;;;;;27.90;38.67;99193.31;378678;106;1962048;-70
2021/08/15 23:28:48;;;;;;;14.75;9.20;;;;;;;27.89;38.75;99190.85;369466;107;1962002;-70
2021/08/15 23:30:00;;;;;;;15.81;9.77;;;;;;;27.96;38.96;99191.97;385813;106;1964810;-70
2021/08/15 23:31:05;;;;;;;13.49;8.79;;;;;;;27.84;38.88;99194.65;365559;109;1962038;-71
2021/08/15 23:32:17;;;;;;;17.35;8.93;;;;;;;27.92;38.95;99195.73;402168;101;1985943;-70
2021/08/15 23:33:22;;;;;;;14.87;9.49;;;;;;;27.80;39.01;99196.41;377142;105;1961963;-70
2021/08/15 23:34:35;;;;;;;16.12;9.33;;;;;;;27.89;39.09;99186.14;395578;103;1987047;-69
2021/08/15 23:35:40;;;;;;;13.43;8.95;;;;;;;27.79;38.97;99192.02;375893;107;1961828;-70
2021/08/15 23:36:52;;;;;;;13.36;9.23;;;;;;;27.92;39.15;99198.51;387354;104;2072022;-71
2021/08/15 23:37:59;;;;;;;15.11;8.98;;;;;;;27.78;39.11;99193.96;361345;107;1970044;-69
2021/08/15 23:39:22;;;;;;;14.37;8.86;;;;;;;27.77;39.15;99194.31;335138;107;2875971;-70
2021/08/15 23:40:28;;;;;;;15.05;9.24;;;;;;;27.72;39.17;99200.84;311274;107;2298443;-69
2021/08/15 23:41:40;;;;;;;14.38;9.41;;;;;;;27.82;39.27;99199.71;388913;106;2070938;-69
2021/08/15 23:42:45;;;;;;;14.68;9.47;;;;;;;27.71;39.31;99198.42;372263;108;1969979;-72
2021/08/15 23:43:57;;;;;;;13.87;8.83;;;;;;;27.77;39.42;99192.34;385299;106;1985941;-71
2021/08/15 23:45:04;;;;;;;15.74;9.22;;;;;;;27.63;39.44;99203.66;367567;107;1962087;-71
2021/08/15 23:46:27;;;;;;;16.25;9.44;;;;;;;27.61;39.54;99199.58;366397;109;1962004;-70
2021/08/15 23:47:33;;;;;;;15.70;9.81;;;;;;;27.61;39.54;99205.94;367389;109;1962078;-70
2021/08/15 23:48:38;;;;;;;14.01;9.69;;;;;;;27.58;39.61;99201.05;366468;109;1962026;-69
2021/08/15 23:49:45;;;;;;;18.22;9.91;;;;;;;27.55;39.63;99204.50;351997;109;2854968;-70
2021/08/15 23:50:57;;;;;;;15.89;10.06;;;;;;;27.70;39.72;99200.36;403656;104;1984689;-70
2021/08/15 23:52:03;;;;;;;15.52;9.71;;;;;;;27.58;39.69;99203.02;374293;105;1961043;-70